Alexandria, VA (22312)

7:11 PM EST on January 26, 2015 (GMT -0500)
PBS Technology Center | Change Station
CLOSE
Current Station
Personal Weather Station
Location: Springfield, VA
Elevation: 170 ft
Nearby Weather Stations
Active Advisory: Winter Weather Advisory Active Notice: Public Information Statement

Elev 170 ft 38.79 °N, 77.17 °W | Updated 0 second ago

Overcast
Overcast
31.9 °F
Feels Like 32 °F
N
3.0
Wind Variable Wind from WSW
Gusts 10.0 mph

Today
High -- | Low -- °F
--% Chance of Precip.
Yesterday
High -- | Low -- °F
Precip. -- in
7:19 AM 5:22 PM
Waxing Crescent, 48% visible
Pressure 29.74 in
Visibility 7.0 miles
Clouds Overcast 1300 ft
Windchill 32 °F
Dew Point 29 °F
Humidity 89%
Rainfall 0.20 in
Snow Depth Not available.
UV 0 out of 12
Pollen .30 out of 12
Air Quality Not available.
Flu Activity Not available.
SPECI KDCA 270002Z 36011KT 7SM -SN OVC013 01/M03 A2974 RMK AO2 P0000 $

More Conditions Fewer Conditions

Pressure 29.74 in
Visibility 7.0 miles
Clouds Overcast 1300 ft
Windchill 32 °F
Dew Point 29 °F
Humidity 89%
Rainfall 0.20 in
Snow Depth Not available.
UV 0 out of 12
Pollen .30 out of 12
Air Quality Not available.
Flu Activity Not available.
SPECI KDCA 270002Z 36011KT 7SM -SN OVC013 01/M03 A2974 RMK AO2 P0000 $

More Conditions Fewer Conditions

10-Day Weather Forecast

Almanac

Astronomy

Jan. 26, 2015 Rise Set
Actual Time
Civil Twilight
Nautical Twilight
Astronomical Twilight
Moon
Length of Visible Light
Length of Day
Tomorrow will be .
, % of the Moon is Illuminated

Today's Extremes

State Highs State Lows

Community

WunderPhotos

Upload Photos

1,790,420 photos uploaded!

WunderBlogs® & News

Nearby

Air Quality

  Air Quality AQ Index Pollutant
Not available.

Snow Depth

Station Depth Elevation

Earthquake Activity

City Distance Mag. Time & Date
Minimum magnitude displayed is 2.5.

Coastal Water Temperatures

Place Temperature

Nearby Weather Stations